createdAt,value
2018-02-13T00:02:02.332Z,98975.53
2018-02-13T00:04:30.036Z,98978.06
2018-02-13T00:06:57.783Z,98981.76
2018-02-13T00:09:25.489Z,98976.64
2018-02-13T00:11:53.211Z,98979.15
2018-02-13T00:14:20.777Z,98974.25
2018-02-13T00:16:48.328Z,98982.28
2018-02-13T00:19:15.941Z,98981.35
2018-02-13T00:21:43.508Z,98980.09
2018-02-13T00:24:11.073Z,98980.75
2018-02-13T00:26:38.716Z,98980.67
2018-02-13T00:29:07.638Z,98979.61
2018-02-13T00:31:35.460Z,98979.67
2018-02-13T00:34:03.068Z,98974.17
2018-02-13T00:36:30.634Z,98959.58
2018-02-13T00:38:58.504Z,98967.02
2018-02-13T00:41:26.228Z,98968.16
2018-02-13T00:43:53.997Z,98975.62
2018-02-13T00:46:21.562Z,98979.87
2018-02-13T00:48:49.121Z,98983.84
2018-02-13T00:51:16.703Z,98982.34
2018-02-13T00:53:44.284Z,98985.27
2018-02-13T00:56:11.858Z,98981.17
2018-02-13T00:58:39.421Z,98986.41
2018-02-13T01:01:07.050Z,98978.91
2018-02-13T01:03:34.617Z,98979.67
2018-02-13T01:06:02.409Z,98971.50
2018-02-13T01:08:29.977Z,98981.31
2018-02-13T01:10:57.540Z,98982.36
2018-02-13T01:13:25.114Z,98981.52
2018-02-13T01:15:52.674Z,98990.59
2018-02-13T01:18:20.309Z,98993.27
2018-02-13T01:20:47.870Z,98991.66
2018-02-13T01:23:15.630Z,98991.59
2018-02-13T01:25:43.454Z,98991.58
2018-02-13T01:28:11.171Z,98991.31
2018-02-13T01:30:38.741Z,98989.58
2018-02-13T01:33:06.301Z,98991.66
2018-02-13T01:35:34.107Z,98990.86
2018-02-13T01:38:01.685Z,98990.09
2018-02-13T01:40:29.440Z,98986.41
2018-02-13T01:42:57.178Z,98984.92
2018-02-13T01:45:24.747Z,98990.36
2018-02-13T01:47:52.321Z,98991.33
2018-02-13T01:50:25.918Z,98994.25
2018-02-13T01:52:53.772Z,98995.20
2018-02-13T01:55:21.333Z,98999.66
2018-02-13T01:57:49.076Z,98992.13
2018-02-13T02:00:16.649Z,98996.98
2018-02-13T02:02:44.445Z,98991.52
2018-02-13T02:05:12.167Z,98994.44
2018-02-13T02:07:39.725Z,98990.59
2018-02-13T02:10:07.599Z,99000.67
2018-02-13T02:12:35.207Z,98992.22
2018-02-13T02:15:02.773Z,98991.66
2018-02-13T02:17:30.379Z,98996.41
2018-02-13T02:19:57.968Z,99004.15
2018-02-13T02:22:25.561Z,98996.63
2018-02-13T02:24:53.196Z,99000.94
2018-02-13T02:27:20.926Z,98996.91
2018-02-13T02:29:48.640Z,98999.19
2018-02-13T02:32:16.190Z,98996.56
2018-02-13T02:34:43.774Z,98992.66
2018-02-13T02:37:11.595Z,98996.14
2018-02-13T02:39:39.297Z,98998.67
2018-02-13T02:42:06.865Z,99001.38
2018-02-13T02:44:34.476Z,98967.27
2018-02-13T02:47:02.038Z,98994.59
2018-02-13T02:49:29.593Z,98999.27
2018-02-13T02:51:57.401Z,99000.38
2018-02-13T02:54:25.121Z,98998.48
2018-02-13T02:56:52.681Z,98999.89
2018-02-13T02:59:20.236Z,99002.23
2018-02-13T03:01:47.959Z,98999.69
2018-02-13T03:04:15.525Z,99001.61
2018-02-13T03:06:43.100Z,99003.95
2018-02-13T03:09:10.708Z,99008.33
2018-02-13T03:11:38.266Z,99015.10
2018-02-13T03:14:05.841Z,99016.80
2018-02-13T03:16:33.580Z,99019.91
2018-02-13T03:19:01.193Z,99021.68
2018-02-13T03:21:28.916Z,99021.98
2018-02-13T03:23:56.493Z,99004.42
2018-02-13T03:26:24.065Z,99019.78
2018-02-13T03:28:51.626Z,99020.90
2018-02-13T03:31:19.389Z,99023.17
2018-02-13T03:33:46.953Z,99017.16
2018-02-13T03:36:14.615Z,99021.12
2018-02-13T03:38:43.249Z,99014.71
2018-02-13T03:41:10.814Z,99015.50
2018-02-13T03:43:38.580Z,99019.28
2018-02-13T03:46:06.137Z,99014.16
2018-02-13T03:48:33.701Z,99017.70
2018-02-13T03:51:01.392Z,99024.87
2018-02-13T03:53:29.114Z,99028.11
2018-02-13T03:55:56.665Z,99024.78
2018-02-13T03:58:24.380Z,99023.95
2018-02-13T04:00:51.960Z,99026.69
2018-02-13T04:03:19.519Z,99028.40
2018-02-13T04:05:47.134Z,99021.44
2018-02-13T04:08:14.859Z,99020.58
2018-02-13T04:10:42.413Z,99023.16
2018-02-13T04:13:09.983Z,99023.72
2018-02-13T04:15:37.815Z,99013.88
2018-02-13T04:18:05.432Z,99016.50
2018-02-13T04:20:32.990Z,99021.33
2018-02-13T04:23:00.777Z,99023.44
2018-02-13T04:25:28.588Z,99024.78
2018-02-13T04:27:56.145Z,99029.96
2018-02-13T04:30:23.761Z,99038.59
2018-02-13T04:32:51.329Z,99037.03
2018-02-13T04:35:19.135Z,99041.07
2018-02-13T04:37:46.702Z,99037.87
2018-02-13T04:40:14.378Z,99041.94
2018-02-13T04:42:41.922Z,99037.61
2018-02-13T04:45:09.481Z,99043.52
2018-02-13T04:47:37.106Z,99043.28
2018-02-13T04:50:04.680Z,99041.73
2018-02-13T04:52:32.482Z,99038.48
2018-02-13T04:55:00.053Z,99038.79
2018-02-13T04:57:27.618Z,99034.13
2018-02-13T04:59:55.182Z,99035.61
2018-02-13T05:02:22.762Z,99030.97
2018-02-13T05:04:50.382Z,99028.92
2018-02-13T05:07:17.938Z,99022.08
2018-02-13T05:09:45.608Z,99020.23
2018-02-13T05:12:13.184Z,99023.98
2018-02-13T05:14:40.914Z,99027.77
2018-02-13T05:17:08.482Z,99025.77
2018-02-13T05:19:36.070Z,99031.13
2018-02-13T05:22:03.817Z,99032.17
2018-02-13T05:24:31.382Z,99028.23
2018-02-13T05:26:59.096Z,99034.53
2018-02-13T05:29:26.811Z,99037.11
2018-02-13T05:31:54.460Z,99035.98
2018-02-13T05:34:22.286Z,99036.53
2018-02-13T05:36:49.845Z,99032.12
2018-02-13T05:39:17.724Z,99031.98
2018-02-13T05:41:45.444Z,99029.32
2018-02-13T05:44:13.259Z,99021.24
2018-02-13T05:46:40.845Z,99015.29
2018-02-13T05:49:08.477Z,99014.66
2018-02-13T05:51:36.181Z,99012.38
2018-02-13T05:54:03.760Z,99022.04
2018-02-13T05:56:31.551Z,99020.26
2018-02-13T05:58:59.117Z,99029.50
2018-02-13T06:01:26.845Z,99022.81
2018-02-13T06:03:54.420Z,99025.31
2018-02-13T06:06:22.221Z,99017.77
2018-02-13T06:08:49.777Z,99023.81
2018-02-13T06:11:17.342Z,99015.95
2018-02-13T06:13:44.897Z,99016.55
2018-02-13T06:16:12.465Z,99009.96
2018-02-13T06:18:40.068Z,99014.77
2018-02-13T06:21:07.690Z,99010.64
2018-02-13T06:23:35.246Z,98999.66
2018-02-13T06:26:03.064Z,98998.02
2018-02-13T06:28:30.673Z,99011.72
2018-02-13T06:30:58.400Z,99011.95
2018-02-13T06:33:26.118Z,99026.36
2018-02-13T06:35:53.837Z,99035.14
2018-02-13T06:38:21.454Z,99031.53
2018-02-13T06:40:49.081Z,99032.94
2018-02-13T06:43:16.891Z,99032.20
2018-02-13T06:45:44.500Z,99039.25
2018-02-13T06:48:12.226Z,99029.69
2018-02-13T06:50:39.924Z,99026.45
2018-02-13T06:53:07.668Z,99028.61
2018-02-13T06:55:35.482Z,99027.50
2018-02-13T06:58:03.091Z,99028.85
2018-02-13T07:00:30.657Z,99021.58
2018-02-13T07:02:58.438Z,99023.73
2018-02-13T07:05:26.206Z,99012.19
2018-02-13T07:07:53.775Z,99006.46
2018-02-13T07:10:21.348Z,99001.66
2018-02-13T07:12:48.999Z,99008.66
2018-02-13T07:15:16.562Z,99003.88
2018-02-13T07:17:44.343Z,99002.89
2018-02-13T07:20:12.142Z,99003.64
2018-02-13T07:22:39.702Z,98989.52
2018-02-13T07:25:07.272Z,98994.27
2018-02-13T07:27:34.893Z,98999.52
2018-02-13T07:30:02.612Z,98989.86
2018-02-13T07:32:30.195Z,98991.78
2018-02-13T07:34:57.777Z,98987.99
2018-02-13T07:37:25.362Z,98983.12
2018-02-13T07:39:53.171Z,98982.89
2018-02-13T07:42:20.923Z,98980.16
2018-02-13T07:44:48.482Z,99002.03
2018-02-13T07:47:17.227Z,98997.18
2018-02-13T07:49:45.583Z,98991.72
2018-02-13T07:52:13.193Z,99002.12
2018-02-13T07:54:40.904Z,98990.47
2018-02-13T07:57:08.838Z,98981.14
2018-02-13T07:59:36.447Z,98977.94
2018-02-13T08:02:04.188Z,98977.11
2018-02-13T08:04:31.815Z,98980.97
2018-02-13T08:06:59.815Z,98976.30
2018-02-13T08:09:27.423Z,98977.62
2018-02-13T08:11:55.248Z,98977.86
2018-02-13T08:14:22.805Z,98981.92
2018-02-13T08:16:50.584Z,98970.39
2018-02-13T08:19:18.193Z,98964.91
2018-02-13T08:21:46.020Z,98958.02
2018-02-13T08:24:13.838Z,98953.96
2018-02-13T08:26:41.656Z,98951.35
2018-02-13T08:29:09.475Z,98951.74
2018-02-13T08:31:37.087Z,98952.21
2018-02-13T08:34:04.658Z,98960.06
2018-02-13T08:36:32.309Z,98954.52
2018-02-13T08:39:00.147Z,98963.07
2018-02-13T08:41:27.811Z,98970.11
2018-02-13T08:43:55.373Z,98969.59
2018-02-13T08:46:22.981Z,98970.70
2018-02-13T08:48:50.654Z,98970.92
2018-02-13T08:51:18.437Z,98976.75
2018-02-13T08:53:45.997Z,98972.20
2018-02-13T08:56:13.609Z,98972.06
2018-02-13T08:58:41.394Z,98974.85
2018-02-13T09:01:08.953Z,98970.42
2018-02-13T09:03:36.522Z,98968.02
2018-02-13T09:06:04.095Z,98966.98
2018-02-13T09:08:31.862Z,98964.70
2018-02-13T09:10:59.482Z,98965.11
2018-02-13T09:13:27.155Z,98960.86
2018-02-13T09:15:54.791Z,98964.13
2018-02-13T09:18:22.591Z,98969.52
2018-02-13T09:20:50.502Z,98974.09
2018-02-13T09:23:18.223Z,98973.17
2018-02-13T09:25:46.060Z,98973.53
2018-02-13T09:28:13.685Z,98965.61
2018-02-13T09:30:41.329Z,98962.70
2018-02-13T09:33:08.913Z,98960.20
2018-02-13T09:35:36.719Z,98948.37
2018-02-13T09:38:04.290Z,98945.05
2018-02-13T09:40:31.847Z,98937.27
2018-02-13T09:42:59.414Z,98936.34
2018-02-13T09:45:27.033Z,98934.28
2018-02-13T09:47:54.705Z,98927.75
2018-02-13T09:50:22.281Z,98922.55
2018-02-13T09:52:49.838Z,98922.92
2018-02-13T09:55:17.689Z,98914.73
2018-02-13T09:57:45.324Z,98907.72
2018-02-13T10:00:12.961Z,98893.77
2018-02-13T10:02:40.680Z,98898.97
2018-02-13T10:05:08.319Z,98893.64
2018-02-13T10:07:36.081Z,98874.99
2018-02-13T10:10:03.938Z,98871.90
2018-02-13T10:12:31.691Z,98876.73
2018-02-13T10:14:59.554Z,98869.70
2018-02-13T10:17:27.173Z,98867.22
2018-02-13T10:19:54.782Z,98859.70
2018-02-13T10:22:22.661Z,98858.19
2018-02-13T10:24:50.481Z,98847.28
2018-02-13T10:27:18.045Z,98857.07
2018-02-13T10:29:45.817Z,98849.11
2018-02-13T10:32:13.381Z,98840.95
2018-02-13T10:34:41.655Z,98832.36
2018-02-13T10:37:09.473Z,98821.91
2018-02-13T10:39:37.173Z,98813.14
2018-02-13T10:42:04.800Z,98813.67
2018-02-13T10:44:32.365Z,98811.16
2018-02-13T10:46:59.939Z,98807.83
2018-02-13T10:49:27.501Z,98809.23
2018-02-13T10:51:55.126Z,98815.96
2018-02-13T10:54:22.791Z,98809.23
2018-02-13T10:56:50.334Z,98805.47
2018-02-13T10:59:17.932Z,98802.63
2018-02-13T11:01:45.545Z,98812.78
2018-02-13T11:04:13.113Z,98799.30
2018-02-13T11:06:40.669Z,98798.92
2018-02-13T11:09:08.298Z,98776.30
2018-02-13T11:11:36.028Z,98783.36
2018-02-13T11:14:03.642Z,98779.84
2018-02-13T11:16:31.192Z,98773.78
2018-02-13T11:18:58.775Z,98774.73
2018-02-13T11:21:26.556Z,98781.48
2018-02-13T11:23:54.117Z,98773.45
2018-02-13T11:26:21.933Z,98762.91
2018-02-13T11:28:49.506Z,98765.31
2018-02-13T11:31:17.269Z,98761.83
2018-02-13T11:33:44.841Z,98764.88
2018-02-13T11:36:12.603Z,98760.44
2018-02-13T11:38:40.247Z,98763.95
2018-02-13T11:41:07.920Z,98759.67
2018-02-13T11:43:35.508Z,98746.85
2018-02-13T11:46:03.086Z,98744.41
2018-02-13T11:48:30.673Z,98744.16
2018-02-13T11:50:58.430Z,98735.24
2018-02-13T11:53:26.229Z,98731.80
2018-02-13T11:55:53.838Z,98715.64
2018-02-13T11:58:21.567Z,98716.70
2018-02-13T12:00:49.384Z,98723.41
2018-02-13T12:03:17.094Z,98722.80
2018-02-13T12:05:44.649Z,98722.50
2018-02-13T12:08:12.538Z,98731.48
2018-02-13T12:10:40.132Z,98730.53
2018-02-13T12:13:07.758Z,98728.00
2018-02-13T12:15:35.321Z,98735.83
2018-02-13T12:18:02.901Z,98727.78
2018-02-13T12:20:30.546Z,98720.23
2018-02-13T12:22:58.111Z,98699.76
2018-02-13T12:25:37.401Z,98688.41
2018-02-13T12:28:05.318Z,98695.44
2018-02-13T12:30:32.931Z,98681.69
2018-02-13T12:33:00.498Z,98690.04
2018-02-13T12:35:28.106Z,98699.56
2018-02-13T12:37:55.995Z,98701.97
2018-02-13T12:40:23.597Z,98700.28
2018-02-13T12:42:51.201Z,98683.41
2018-02-13T12:45:18.811Z,98681.72
2018-02-13T12:47:46.530Z,98683.03
2018-02-13T12:50:14.150Z,98690.22
2018-02-13T12:52:41.725Z,98687.67
2018-02-13T12:55:09.479Z,98688.55
2018-02-13T12:57:37.062Z,98687.97
2018-02-13T13:00:04.738Z,98687.52
2018-02-13T13:02:32.300Z,98688.31
2018-02-13T13:04:59.917Z,98679.06
2018-02-13T13:07:27.489Z,98678.25
2018-02-13T13:09:55.331Z,98682.98
2018-02-13T13:12:22.985Z,98671.19
2018-02-13T13:14:51.321Z,98669.78
2018-02-13T13:17:19.095Z,98679.38
2018-02-13T13:19:46.694Z,98683.00
2018-02-13T13:22:14.263Z,98679.36
2018-02-13T13:24:41.838Z,98671.36
2018-02-13T13:27:09.390Z,98671.84
2018-02-13T13:29:37.170Z,98673.27
2018-02-13T13:32:04.893Z,98672.16
2018-02-13T13:34:32.614Z,98669.42
2018-02-13T13:37:00.334Z,98676.13
2018-02-13T13:39:28.403Z,98673.14
2018-02-13T13:41:56.079Z,98662.23
2018-02-13T13:44:23.854Z,98672.63
2018-02-13T13:46:51.457Z,98663.58
2018-02-13T13:49:19.013Z,98676.41
2018-02-13T13:51:46.754Z,98671.33
2018-02-13T13:54:14.560Z,98672.41
2018-02-13T13:56:42.281Z,98663.99
2018-02-13T13:59:09.889Z,98669.52
2018-02-13T14:01:37.714Z,98667.27
2018-02-13T14:04:05.282Z,98658.59
2018-02-13T14:06:32.884Z,98653.59
2018-02-13T14:09:00.665Z,98665.30
2018-02-13T14:11:28.325Z,98658.79
2018-02-13T14:13:55.885Z,98658.41
2018-02-13T14:16:23.514Z,98656.02
2018-02-13T14:18:51.514Z,98661.36
2018-02-13T14:21:19.259Z,98655.15
2018-02-13T14:23:46.876Z,98650.30
2018-02-13T14:26:14.419Z,98652.98
2018-02-13T14:28:42.036Z,98649.09
2018-02-13T14:31:09.763Z,98650.08
2018-02-13T14:33:37.442Z,98636.52
2018-02-13T14:36:05.159Z,98628.31
2018-02-13T14:38:32.749Z,98636.00
2018-02-13T14:41:00.395Z,98637.70
2018-02-13T14:43:27.970Z,98632.56
2018-02-13T14:45:55.543Z,98622.69
2018-02-13T14:48:23.337Z,98623.91
2018-02-13T14:50:50.912Z,98625.81
2018-02-13T14:53:18.476Z,98610.42
2018-02-13T14:55:46.045Z,98628.73
2018-02-13T14:58:13.605Z,98622.34
2018-02-13T15:00:41.848Z,98629.03
2018-02-13T15:03:09.666Z,98629.98
2018-02-13T15:05:37.486Z,98623.51
2018-02-13T15:08:05.019Z,98624.55
2018-02-13T15:10:32.709Z,98633.53
2018-02-13T15:13:00.298Z,98627.31
2018-02-13T15:15:29.683Z,98616.16
2018-02-13T15:18:10.296Z,98618.62
2018-02-13T15:20:37.918Z,98618.48
2018-02-13T15:23:05.677Z,98627.50
2018-02-13T15:25:33.245Z,98617.56
2018-02-13T15:28:00.983Z,98618.73
2018-02-13T15:30:28.608Z,98609.48
2018-02-13T15:32:56.436Z,98604.48
2018-02-13T15:35:23.998Z,98608.08
2018-02-13T15:37:51.570Z,98605.20
2018-02-13T15:40:19.275Z,98599.55
2018-02-13T15:42:46.806Z,98599.63
2018-02-13T15:45:14.627Z,98598.00
2018-02-13T15:47:42.229Z,98598.87
2018-02-13T15:50:09.796Z,98590.53
2018-02-13T15:52:37.405Z,98591.48
2018-02-13T15:55:04.970Z,98593.11
2018-02-13T15:57:32.581Z,98583.63
2018-02-13T16:00:00.214Z,98583.59
2018-02-13T16:02:27.786Z,98590.23
2018-02-13T16:04:55.673Z,98592.42
2018-02-13T16:07:23.265Z,98569.94
2018-02-13T16:09:50.825Z,98581.84
2018-02-13T16:12:18.623Z,98588.33
2018-02-13T16:14:46.246Z,98584.34
2018-02-13T16:17:13.960Z,98590.52
2018-02-13T16:19:41.526Z,98591.54
2018-02-13T16:22:09.138Z,98594.69
2018-02-13T16:24:36.737Z,98595.82
2018-02-13T16:27:04.359Z,98597.34
2018-02-13T16:29:31.938Z,98592.02
2018-02-13T16:31:59.818Z,98587.44
2018-02-13T16:34:27.586Z,98585.38
2018-02-13T16:36:55.141Z,98581.88
2018-02-13T16:39:22.902Z,98539.56
2018-02-13T16:41:50.449Z,98582.53
2018-02-13T16:44:18.014Z,98581.35
2018-02-13T16:46:45.718Z,98582.23
2018-02-13T16:49:13.466Z,98566.22
2018-02-13T16:51:41.022Z,98578.61
2018-02-13T16:54:08.725Z,98585.22
2018-02-13T16:56:36.307Z,98584.92
2018-02-13T16:59:03.871Z,98586.28
2018-02-13T17:01:31.684Z,98577.45
2018-02-13T17:03:59.261Z,98577.53
2018-02-13T17:06:27.021Z,98573.39
2018-02-13T17:08:54.738Z,98571.19
2018-02-13T17:11:22.457Z,98568.45
2018-02-13T17:13:50.333Z,98568.22
2018-02-13T17:16:17.885Z,98562.53
2018-02-13T17:18:45.442Z,98569.35
2018-02-13T17:21:13.232Z,98565.41
2018-02-13T17:23:40.845Z,98549.77
2018-02-13T17:26:08.670Z,98553.98
2018-02-13T17:28:36.230Z,98542.78
2018-02-13T17:31:03.814Z,98554.28
2018-02-13T17:33:31.487Z,98557.49
2018-02-13T17:35:59.294Z,98549.59
2018-02-13T17:38:26.968Z,98550.11
2018-02-13T17:40:54.666Z,98550.63
2018-02-13T17:43:22.330Z,98544.59
2018-02-13T17:45:49.948Z,98537.78
2018-02-13T17:48:17.514Z,98551.36
2018-02-13T17:50:45.302Z,98535.22
2018-02-13T17:53:13.122Z,98540.68
2018-02-13T17:55:40.839Z,98537.98
2018-02-13T17:58:08.441Z,98534.86
2018-02-13T18:00:35.997Z,98543.89
2018-02-13T18:03:03.560Z,98539.48
2018-02-13T18:05:31.311Z,98526.66
2018-02-13T18:07:59.029Z,98530.29
2018-02-13T18:10:26.594Z,98525.17
2018-02-13T18:12:54.256Z,98532.91
2018-02-13T18:15:21.912Z,98514.96
2018-02-13T18:17:49.622Z,98514.20
2018-02-13T18:20:17.521Z,98514.13
2018-02-13T18:22:45.338Z,98518.97
2018-02-13T18:25:12.892Z,98518.18
2018-02-13T18:27:40.470Z,98504.81
2018-02-13T18:30:08.284Z,98505.11
2018-02-13T18:32:35.889Z,98506.91
2018-02-13T18:35:03.629Z,98502.58
2018-02-13T18:37:31.195Z,98501.20
2018-02-13T18:39:58.856Z,98497.83
2018-02-13T18:42:26.421Z,98495.92
2018-02-13T18:44:53.999Z,98494.75
2018-02-13T18:47:21.561Z,98497.58
2018-02-13T18:49:49.172Z,98491.01
2018-02-13T18:54:44.472Z,98484.42
2018-02-13T18:57:12.342Z,98478.94
2018-02-13T18:59:40.111Z,98488.86
2018-02-13T19:02:08.055Z,98481.50
2018-02-13T19:04:35.852Z,98482.62
2018-02-13T19:07:03.666Z,98478.38
2018-02-13T19:09:31.225Z,98479.50
2018-02-13T19:11:58.798Z,98480.71
2018-02-13T19:14:26.619Z,98480.66
2018-02-13T19:19:21.926Z,98477.33
2018-02-13T19:21:49.646Z,98468.63
2018-02-13T19:24:17.363Z,98460.53
2018-02-13T19:26:44.991Z,98464.67
2018-02-13T19:29:12.622Z,98459.67
2018-02-13T19:31:40.418Z,98467.08
2018-02-13T19:34:08.056Z,98470.79
2018-02-13T19:36:35.743Z,98463.71
2018-02-13T19:39:03.601Z,98462.63
2018-02-13T19:41:31.197Z,98455.05
2018-02-13T19:43:58.778Z,98466.20
2018-02-13T19:46:26.393Z,98455.50
2018-02-13T19:48:54.275Z,98449.34
2018-02-13T19:51:21.859Z,98445.08
2018-02-13T19:53:49.612Z,98450.20
2018-02-13T19:56:17.197Z,98447.30
2018-02-13T19:58:44.914Z,98445.17
2018-02-13T20:01:12.630Z,98441.38
2018-02-13T20:03:40.191Z,98435.95
2018-02-13T20:06:07.817Z,98432.42
2018-02-13T20:08:35.619Z,98435.08
2018-02-13T20:11:03.545Z,98429.58
2018-02-13T20:13:31.129Z,98424.75
2018-02-13T20:15:58.690Z,98426.91
2018-02-13T20:18:26.283Z,98414.20
2018-02-13T20:20:54.114Z,98413.12
2018-02-13T20:23:21.929Z,98409.49
2018-02-13T20:25:49.758Z,98399.20
2018-02-13T20:28:17.321Z,98393.00
2018-02-13T20:30:45.053Z,98387.55
2018-02-13T20:33:12.596Z,98379.80
2018-02-13T20:35:40.410Z,98375.63
2018-02-13T20:38:07.975Z,98384.42
2018-02-13T20:40:35.701Z,98375.30
2018-02-13T20:43:03.474Z,98376.08
2018-02-13T20:45:31.294Z,98373.20
2018-02-13T20:47:58.866Z,98378.08
2018-02-13T20:50:26.480Z,98372.96
2018-02-13T20:52:54.050Z,98368.73
2018-02-13T20:55:21.866Z,98373.94
2018-02-13T20:57:49.575Z,98371.61
2018-02-13T21:00:17.161Z,98368.53
2018-02-13T21:02:44.713Z,98366.08
2018-02-13T21:05:12.287Z,98368.99
2018-02-13T21:07:39.846Z,98366.65
2018-02-13T21:10:07.413Z,98364.98
2018-02-13T21:12:35.154Z,98362.25
2018-02-13T21:15:02.766Z,98365.47
2018-02-13T21:17:30.527Z,98362.18
2018-02-13T21:19:58.246Z,98354.11
2018-02-13T21:22:25.884Z,98357.77
2018-02-13T21:24:53.683Z,98351.06
2018-02-13T21:27:21.500Z,98341.27
2018-02-13T21:29:49.063Z,98346.02
2018-02-13T21:32:16.837Z,98346.64
2018-02-13T21:34:44.566Z,98346.44
2018-02-13T21:37:12.129Z,98339.11
2018-02-13T21:39:39.891Z,98341.20
2018-02-13T21:42:07.710Z,98341.69
2018-02-13T21:44:35.451Z,98335.16
2018-02-13T21:47:03.013Z,98328.86
2018-02-13T21:49:30.573Z,98328.45
2018-02-13T21:51:58.382Z,98330.23
2018-02-13T21:54:26.201Z,98334.15
2018-02-13T21:56:54.020Z,98327.20
2018-02-13T21:59:21.575Z,98324.48
2018-02-13T22:01:49.241Z,98312.02
2018-02-13T22:04:16.798Z,98317.98
2018-02-13T22:06:44.361Z,98319.20
2018-02-13T22:09:11.950Z,98308.99
2018-02-13T22:11:39.507Z,98305.41
2018-02-13T22:14:07.081Z,98295.95
2018-02-13T22:16:34.741Z,98294.03
2018-02-13T22:19:02.346Z,98284.73
2018-02-13T22:21:30.100Z,98292.94
2018-02-13T22:23:57.931Z,98291.89
2018-02-13T22:26:25.656Z,98292.34
2018-02-13T22:28:53.373Z,98283.58
2018-02-13T22:31:21.172Z,98276.42
2018-02-13T22:33:48.733Z,98275.05
2018-02-13T22:36:16.303Z,98265.00
2018-02-13T22:38:43.878Z,98262.16
2018-02-13T22:41:11.644Z,98251.80
2018-02-13T22:43:39.254Z,98252.02
2018-02-13T22:46:06.812Z,98255.70
2018-02-13T22:48:34.410Z,98252.89
2018-02-13T22:51:02.094Z,98252.42
2018-02-13T22:53:29.693Z,98250.05
2018-02-13T22:55:57.452Z,98256.33
2018-02-13T22:58:25.046Z,98248.03
2018-02-13T23:00:52.651Z,98250.33
2018-02-13T23:03:20.212Z,98247.23
2018-02-13T23:05:47.831Z,98234.98
2018-02-13T23:08:15.390Z,98235.26
2018-02-13T23:10:42.953Z,98232.21
2018-02-13T23:13:10.521Z,98233.01
2018-02-13T23:15:38.063Z,98233.27
2018-02-13T23:18:05.629Z,98239.00
2018-02-13T23:20:33.189Z,98235.74
2018-02-13T23:23:00.817Z,98235.30
2018-02-13T23:25:28.373Z,98230.75
2018-02-13T23:27:56.184Z,98241.72
2018-02-13T23:30:23.798Z,98237.14
2018-02-13T23:32:51.358Z,98233.74
2018-02-13T23:35:18.940Z,98241.11
2018-02-13T23:37:46.499Z,98236.83
2018-02-13T23:40:14.116Z,98240.36
2018-02-13T23:42:41.892Z,98226.70
2018-02-13T23:45:09.449Z,98237.67
2018-02-13T23:47:37.227Z,98231.49
2018-02-13T23:50:04.794Z,98232.09
2018-02-13T23:52:32.358Z,98227.16
2018-02-13T23:54:59.914Z,98234.59
2018-02-13T23:57:27.498Z,98229.59
2018-02-13T23:59:55.189Z,98226.45
